Time;durP1;ratioP1;P1;durP2;ratioP2;P2;SDS_P1;SDS_P2;PMS_P1;PMS_P2;Temp;Humidity;BMP_temperature;BMP_pressure;BME280_temperature;BME280_humidity;BME280_pressure;Samples;Min_cycle;Max_cycle;Signal;HPM_P1;HPM_P2
2021/07/15 00:00:52;;;;;;;5.38;4.60;;;23.40;74.10;;;;;;5052026;28;20045;-46
2021/07/15 00:03:21;;;;;;;5.35;4.85;;;23.40;74.10;;;;;;5050882;28;20045;-52
2021/07/15 00:05:48;;;;;;;4.70;4.30;;;23.40;74.10;;;;;;5041176;28;20493;-48
2021/07/15 00:08:18;;;;;;;5.25;4.60;;;23.40;74.20;;;;;;5042548;28;20492;-50
2021/07/15 00:10:51;;;;;;;4.70;4.22;;;23.40;74.10;;;;;;5051722;28;20068;-48
2021/07/15 00:13:16;;;;;;;5.35;4.50;;;23.30;74.10;;;;;;5042857;28;20049;-53
2021/07/15 00:15:49;;;;;;;4.70;4.30;;;23.30;74.10;;;;;;5047760;28;20525;-49
2021/07/15 00:18:18;;;;;;;6.88;4.65;;;23.40;74.10;;;;;;5051288;28;20044;-51
2021/07/15 00:20:49;;;;;;;5.13;4.60;;;23.40;74.10;;;;;;5050422;28;20045;-50
2021/07/15 00:23:15;;;;;;;4.93;4.43;;;23.30;74.10;;;;;;5051885;28;20098;-48
2021/07/15 00:25:43;;;;;;;4.97;4.47;;;23.30;74.10;;;;;;5055244;28;20502;-52
2021/07/15 00:28:08;;;;;;;5.13;4.63;;;23.40;74.20;;;;;;5053450;28;20399;-52
2021/07/15 00:30:34;;;;;;;4.57;4.18;;;23.40;74.10;;;;;;5053440;28;20052;-46
2021/07/15 00:33:02;;;;;;;4.40;4.00;;;23.30;74.10;;;;;;5053797;28;20045;-49
2021/07/15 00:35:28;;;;;;;4.53;4.13;;;23.30;74.10;;;;;;5053558;28;20412;-54
2021/07/15 00:37:54;;;;;;;5.57;4.13;;;23.30;74.10;;;;;;5055400;28;20053;-49
2021/07/15 00:40:19;;;;;;;5.32;4.45;;;23.30;74.10;;;;;;5054063;28;20509;-44
2021/07/15 00:42:45;;;;;;;4.65;4.20;;;23.30;74.20;;;;;;5052608;28;20554;-46
2021/07/15 00:45:13;;;;;;;4.72;4.25;;;23.30;74.10;;;;;;5053248;28;20055;-50
2021/07/15 00:47:40;;;;;;;4.60;4.20;;;23.30;74.10;;;;;;5055030;28;20052;-54
2021/07/15 00:50:08;;;;;;;5.10;4.60;;;23.30;74.10;;;;;;5054300;28;20469;-45
2021/07/15 00:52:35;;;;;;;4.97;4.57;;;23.30;74.10;;;;;;5055471;28;20076;-53
2021/07/15 00:55:01;;;;;;;5.18;4.50;;;23.30;74.10;;;;;;5054482;28;20049;-44
2021/07/15 00:57:27;;;;;;;5.00;4.47;;;23.30;74.20;;;;;;5053683;28;20131;-48
2021/07/15 00:59:53;;;;;;;4.50;4.10;;;23.30;74.20;;;;;;5055108;28;20088;-50
2021/07/15 01:02:19;;;;;;;5.10;4.57;;;23.30;74.10;;;;;;5054344;28;20418;-49
2021/07/15 01:04:45;;;;;;;5.03;4.15;;;23.30;74.20;;;;;;5053655;28;20045;-53
2021/07/15 01:07:11;;;;;;;4.82;4.32;;;23.30;74.20;;;;;;5053422;28;20072;-50
2021/07/15 01:09:37;;;;;;;4.70;4.25;;;23.30;74.20;;;;;;5053491;28;20080;-48
2021/07/15 01:12:29;;;;;;;4.97;4.45;;;23.30;74.20;;;;;;5053112;28;20052;-48
2021/07/15 01:15:09;;;;;;;5.22;4.70;;;23.30;74.20;;;;;;5052946;28;20049;-47
2021/07/15 01:17:50;;;;;;;4.82;4.20;;;23.30;74.10;;;;;;5054170;28;20126;-46
2021/07/15 01:20:49;;;;;;;4.25;3.85;;;23.30;74.10;;;;;;5051634;28;20467;-45
2021/07/15 01:23:41;;;;;;;4.93;4.53;;;23.30;74.10;;;;;;5053514;28;20056;-52
2021/07/15 01:26:35;;;;;;;5.15;4.65;;;23.30;74.10;;;;;;5053188;28;20056;-45
2021/07/15 01:29:27;;;;;;;5.22;4.72;;;23.30;74.10;;;;;;5052175;28;20051;-49
2021/07/15 01:31:56;;;;;;;5.05;4.55;;;23.30;74.10;;;;;;5054700;28;20045;-48
2021/07/15 01:34:23;;;;;;;4.70;4.20;;;23.30;74.20;;;;;;5053491;28;20152;-51
2021/07/15 01:36:53;;;;;;;5.70;4.93;;;23.30;74.20;;;;;;5053522;28;20550;-50
2021/07/15 01:39:28;;;;;;;4.50;4.10;;;23.30;74.30;;;;;;5054030;28;20045;-49
2021/07/15 01:41:59;;;;;;;5.10;4.60;;;23.20;74.20;;;;;;5053743;28;20055;-51
2021/07/15 01:44:28;;;;;;;5.43;4.93;;;23.30;74.20;;;;;;5052876;28;20416;-48
2021/07/15 01:46:55;;;;;;;5.13;4.30;;;23.30;74.30;;;;;;5053678;28;20060;-48
2021/07/15 01:49:24;;;;;;;5.68;5.18;;;23.30;74.20;;;;;;5052829;28;20489;-46
2021/07/15 01:51:53;;;;;;;5.65;4.60;;;23.30;74.20;;;;;;5054286;28;20080;-50
2021/07/15 01:54:19;;;;;;;5.70;4.97;;;23.30;74.30;;;;;;5053803;28;20045;-46
2021/07/15 01:56:48;;;;;;;5.47;4.53;;;23.30;74.30;;;;;;5053406;28;20048;-47
2021/07/15 01:59:18;;;;;;;5.00;4.50;;;23.20;74.20;;;;;;5053406;28;20038;-50
2021/07/15 02:01:47;;;;;;;5.70;4.75;;;23.30;74.30;;;;;;5053756;28;20490;-48
2021/07/15 02:04:14;;;;;;;5.00;4.43;;;23.30;74.30;;;;;;5052629;28;20088;-48
2021/07/15 02:06:46;;;;;;;5.38;4.88;;;23.30;74.30;;;;;;5053706;28;20048;-49
2021/07/15 02:09:13;;;;;;;5.05;4.63;;;23.20;74.20;;;;;;5053125;28;20485;-46
2021/07/15 02:11:45;;;;;;;5.70;4.93;;;23.30;74.30;;;;;;5053521;28;20406;-48
2021/07/15 02:14:13;;;;;;;5.18;4.30;;;23.30;74.30;;;;;;5052691;28;20052;-49
2021/07/15 02:16:42;;;;;;;6.22;4.97;;;23.30;74.30;;;;;;5051389;28;20044;-46
2021/07/15 02:19:09;;;;;;;5.60;4.95;;;23.30;74.30;;;;;;5052123;28;20065;-45
2021/07/15 02:21:37;;;;;;;5.40;4.88;;;23.30;74.30;;;;;;5053818;28;20052;-51
2021/07/15 02:24:05;;;;;;;5.45;4.78;;;23.20;74.20;;;;;;5053814;28;20152;-48
2021/07/15 02:26:32;;;;;;;5.43;4.50;;;23.20;74.20;;;;;;5050727;28;20045;-48
2021/07/15 02:28:58;;;;;;;6.95;5.10;;;23.20;74.20;;;;;;5051764;28;20452;-45
2021/07/15 02:31:35;;;;;;;5.13;4.63;;;23.30;74.30;;;;;;5050949;28;20045;-50
2021/07/15 02:34:06;;;;;;;5.30;4.57;;;23.30;74.30;;;;;;5051652;28;20072;-45
2021/07/15 02:36:33;;;;;;;6.60;4.85;;;23.20;74.20;;;;;;5051843;28;20087;-47
2021/07/15 02:39:01;;;;;;;5.28;4.75;;;23.20;74.20;;;;;;5052983;28;20095;-49
2021/07/15 02:41:27;;;;;;;5.88;5.20;;;23.20;74.20;;;;;;5052621;28;20053;-53
2021/07/15 02:43:53;;;;;;;5.53;4.90;;;23.20;74.20;;;;;;5052936;28;20102;-48
2021/07/15 02:46:19;;;;;;;6.20;4.82;;;23.20;74.90;;;;;;5050680;28;20041;-53
2021/07/15 02:48:45;;;;;;;5.80;4.55;;;23.20;74.20;;;;;;5050896;28;20063;-44
2021/07/15 02:51:11;;;;;;;5.93;4.38;;;23.20;74.20;;;;;;5052080;28;20052;-53
2021/07/15 02:53:38;;;;;;;6.88;5.28;;;23.20;74.20;;;;;;5053157;28;20053;-49
2021/07/15 02:56:11;;;;;;;5.90;4.80;;;23.20;74.20;;;;;;5052493;28;20044;-49
2021/07/15 02:58:44;;;;;;;5.05;4.38;;;23.20;74.20;;;;;;5050977;28;20052;-50
2021/07/15 03:01:16;;;;;;;7.07;4.88;;;23.20;74.20;;;;;;5052667;28;20067;-49
2021/07/15 03:03:48;;;;;;;5.97;4.78;;;23.20;74.20;;;;;;5051635;28;20072;-56
2021/07/15 03:06:22;;;;;;;5.85;4.45;;;23.20;74.20;;;;;;5051610;28;20053;-52
2021/07/15 03:08:58;;;;;;;6.30;5.00;;;23.20;74.20;;;;;;5051780;28;20588;-54
2021/07/15 03:11:31;;;;;;;5.43;4.55;;;23.20;74.20;;;;;;5052572;28;20045;-51
2021/07/15 03:13:59;;;;;;;5.45;4.50;;;23.20;74.20;;;;;;5052396;28;20052;-48
2021/07/15 03:16:25;;;;;;;7.05;4.80;;;23.20;74.20;;;;;;5051369;28;20049;-52
2021/07/15 03:18:53;;;;;;;5.07;4.57;;;23.20;74.20;;;;;;5050590;28;20051;-54
2021/07/15 03:21:21;;;;;;;5.53;5.00;;;23.20;74.20;;;;;;5052097;28;20614;-48
2021/07/15 03:23:47;;;;;;;6.20;4.95;;;23.20;74.20;;;;;;5052254;28;20071;-50
2021/07/15 03:26:15;;;;;;;5.55;4.90;;;23.30;74.30;;;;;;5052661;28;20091;-55
2021/07/15 03:28:45;;;;;;;4.88;4.38;;;23.20;74.20;;;;;;5051311;28;20482;-46
2021/07/15 03:31:11;;;;;;;4.93;4.25;;;23.20;74.20;;;;;;5050488;28;20819;-54
2021/07/15 03:33:39;;;;;;;5.60;4.50;;;23.20;74.20;;;;;;5051546;28;20053;-52
2021/07/15 03:36:06;;;;;;;5.57;4.60;;;23.20;74.20;;;;;;5052019;28;20099;-48
2021/07/15 03:38:34;;;;;;;5.68;5.07;;;23.20;74.20;;;;;;5050326;28;20072;-56
2021/07/15 03:41:04;;;;;;;7.05;4.28;;;23.20;74.20;;;;;;5051299;28;20055;-49
2021/07/15 03:43:32;;;;;;;5.75;4.50;;;23.20;74.20;;;;;;5051346;28;20481;-48
2021/07/15 03:46:00;;;;;;;5.30;4.65;;;23.20;74.20;;;;;;5050128;28;20091;-51
2021/07/15 03:48:27;;;;;;;5.03;4.43;;;23.20;74.20;;;;;;5050879;28;20044;-49
2021/07/15 03:51:01;;;;;;;5.35;4.82;;;23.20;74.20;;;;;;5051540;28;20053;-46
2021/07/15 03:53:28;;;;;;;4.40;4.00;;;23.20;74.20;;;;;;5050886;28;20055;-47
2021/07/15 03:55:55;;;;;;;5.20;4.70;;;23.20;74.20;;;;;;5052069;28;20501;-59
2021/07/15 03:58:22;;;;;;;4.72;4.32;;;23.20;74.20;;;;;;5049469;28;20041;-48
2021/07/15 04:00:50;;;;;;;5.22;4.65;;;23.20;74.20;;;;;;5049897;28;20155;-53
2021/07/15 04:03:21;;;;;;;5.55;4.28;;;23.20;74.20;;;;;;5051409;28;20079;-46
2021/07/15 04:05:50;;;;;;;5.00;4.57;;;23.20;74.20;;;;;;5051619;28;20050;-49
2021/07/15 04:08:18;;;;;;;4.60;4.20;;;23.20;74.20;;;;;;5051054;28;20440;-47
2021/07/15 04:10:45;;;;;;;5.60;4.93;;;23.20;74.20;;;;;;5051101;28;20512;-46
2021/07/15 04:13:13;;;;;;;5.45;4.22;;;23.20;74.20;;;;;;5051236;28;20053;-45
2021/07/15 04:15:55;;;;;;;5.50;4.65;;;23.20;74.20;;;;;;5050809;28;20440;-54
2021/07/15 04:18:28;;;;;;;5.20;4.70;;;23.20;74.20;;;;;;5051773;28;20439;-48
2021/07/15 04:20:56;;;;;;;4.53;4.13;;;23.20;74.20;;;;;;5050879;28;20068;-50
2021/07/15 04:23:23;;;;;;;4.93;4.13;;;23.20;74.20;;;;;;5051116;28;20045;-54
2021/07/15 04:25:53;;;;;;;4.68;4.20;;;23.20;74.20;;;;;;5051303;28;20447;-54
2021/07/15 04:28:19;;;;;;;6.28;4.68;;;23.20;74.20;;;;;;5049909;28;20547;-57
2021/07/15 04:30:47;;;;;;;5.30;4.45;;;23.20;74.20;;;;;;5049675;28;20077;-49
2021/07/15 04:33:14;;;;;;;4.93;4.20;;;23.20;74.20;;;;;;5050126;28;20045;-54
2021/07/15 04:35:40;;;;;;;5.45;4.32;;;23.20;74.20;;;;;;5050441;28;20047;-57
2021/07/15 04:38:07;;;;;;;5.40;4.47;;;23.20;74.20;;;;;;5050309;28;20049;-54
2021/07/15 04:40:34;;;;;;;5.22;4.45;;;23.20;74.20;;;;;;5051021;28;20413;-47
2021/07/15 04:43:05;;;;;;;6.78;4.50;;;23.20;74.20;;;;;;5051363;28;20413;-49
2021/07/15 04:45:33;;;;;;;5.10;4.60;;;23.20;74.20;;;;;;5050866;28;20076;-55
2021/07/15 04:47:59;;;;;;;4.88;4.43;;;23.10;74.10;;;;;;5050882;28;20390;-52
2021/07/15 04:50:28;;;;;;;6.22;4.40;;;23.20;74.20;;;;;;5050840;28;20041;-55
2021/07/15 04:52:58;;;;;;;4.95;4.45;;;23.20;74.20;;;;;;5050472;28;20052;-50
2021/07/15 04:55:25;;;;;;;5.88;4.78;;;23.20;74.20;;;;;;5049350;28;20049;-51
2021/07/15 04:57:52;;;;;;;4.85;4.43;;;23.20;74.20;;;;;;5051250;28;20547;-56
2021/07/15 05:00:18;;;;;;;4.78;4.25;;;23.20;74.20;;;;;;5050403;28;20396;-52
2021/07/15 05:02:44;;;;;;;4.97;4.43;;;23.10;74.10;;;;;;5049631;28;20052;-46
2021/07/15 05:05:12;;;;;;;6.25;4.30;;;23.20;74.20;;;;;;5050467;28;20052;-51
2021/07/15 05:07:39;;;;;;;5.13;4.63;;;23.20;74.20;;;;;;5048697;28;20044;-49
2021/07/15 05:10:08;;;;;;;4.90;4.30;;;23.20;74.20;;;;;;5051105;28;20153;-50
2021/07/15 05:12:34;;;;;;;5.55;4.25;;;23.20;74.20;;;;;;5053857;28;20551;-45
2021/07/15 05:15:08;;;;;;;4.80;4.30;;;23.20;74.20;;;;;;5052716;28;20416;-52
2021/07/15 05:17:35;;;;;;;4.93;4.10;;;23.10;74.10;;;;;;5053649;28;20045;-54
2021/07/15 05:20:01;;;;;;;4.90;4.45;;;23.20;74.80;;;;;;5054388;28;20041;-52
2021/07/15 05:22:26;;;;;;;4.82;4.22;;;23.10;74.10;;;;;;5053725;28;20052;-48
2021/07/15 05:24:52;;;;;;;5.18;4.68;;;23.20;74.20;;;;;;5054330;28;20179;-48
2021/07/15 05:27:18;;;;;;;4.40;4.00;;;23.10;74.10;;;;;;5053812;28;20057;-48
2021/07/15 05:29:44;;;;;;;5.47;4.85;;;23.20;74.20;;;;;;5052671;28;20053;-46
2021/07/15 05:32:10;;;;;;;4.78;4.28;;;23.10;74.10;;;;;;5052391;28;20123;-47
2021/07/15 05:34:36;;;;;;;4.95;4.05;;;23.10;74.10;;;;;;5053425;28;20136;-50
2021/07/15 05:37:02;;;;;;;4.97;4.47;;;23.20;74.10;;;;;;5052668;28;20091;-51
2021/07/15 05:39:29;;;;;;;4.80;4.38;;;23.10;74.10;;;;;;5053534;28;20817;-45
2021/07/15 05:41:54;;;;;;;5.38;4.65;;;23.20;74.20;;;;;;5053783;28;20079;-47
2021/07/15 05:44:20;;;;;;;4.82;4.32;;;23.10;74.10;;;;;;5053269;28;20048;-48
2021/07/15 05:46:46;;;;;;;5.55;4.60;;;23.20;74.10;;;;;;5053359;28;20098;-50
2021/07/15 05:49:11;;;;;;;5.00;4.50;;;23.10;74.10;;;;;;5052737;28;20045;-47
2021/07/15 05:51:37;;;;;;;4.93;4.32;;;23.10;74.10;;;;;;5052498;28;20053;-52
2021/07/15 05:54:03;;;;;;;4.82;4.32;;;23.20;74.20;;;;;;5052660;28;20841;-43
2021/07/15 05:56:29;;;;;;;5.97;4.68;;;23.10;74.10;;;;;;5054215;28;20080;-49
2021/07/15 05:58:55;;;;;;;4.82;4.20;;;23.10;74.10;;;;;;5053011;28;20730;-48
2021/07/15 06:01:21;;;;;;;5.35;4.30;;;23.10;74.10;;;;;;5052798;28;20045;-47
2021/07/15 06:03:47;;;;;;;5.07;4.15;;;23.10;74.80;;;;;;5053643;28;20448;-53
2021/07/15 06:06:13;;;;;;;4.97;4.47;;;23.10;74.10;;;;;;5053874;28;20056;-43
2021/07/15 06:08:39;;;;;;;6.07;4.60;;;23.10;74.10;;;;;;5052082;28;20041;-57
2021/07/15 06:11:05;;;;;;;5.35;4.80;;;23.20;74.20;;;;;;5052850;28;20501;-51
2021/07/15 06:13:31;;;;;;;6.18;4.35;;;23.20;74.20;;;;;;5053051;28;20489;-49
2021/07/15 06:15:57;;;;;;;5.93;4.47;;;23.10;74.10;;;;;;5052886;28;20057;-50
2021/07/15 06:18:22;;;;;;;5.38;4.30;;;23.10;74.10;;;;;;5051771;28;20041;-51
2021/07/15 06:20:48;;;;;;;5.80;4.63;;;23.10;74.10;;;;;;5052534;28;20045;-44
2021/07/15 06:23:14;;;;;;;5.78;4.55;;;23.10;74.10;;;;;;5049355;28;20123;-51
2021/07/15 06:25:39;;;;;;;5.75;4.38;;;23.10;74.10;;;;;;5052434;28;20045;-50
2021/07/15 06:28:05;;;;;;;5.40;4.60;;;23.10;74.10;;;;;;5050580;28;20041;-47
2021/07/15 06:30:31;;;;;;;5.90;5.30;;;23.10;74.10;;;;;;5052991;28;20049;-48
2021/07/15 06:32:58;;;;;;;5.22;4.40;;;23.10;74.10;;;;;;5052321;28;20073;-52
2021/07/15 06:35:24;;;;;;;6.45;4.70;;;23.10;74.10;;;;;;5051867;28;20045;-48
2021/07/15 06:37:52;;;;;;;5.32;3.95;;;23.10;74.10;;;;;;5052548;28;20064;-50
2021/07/15 06:40:19;;;;;;;5.35;4.50;;;23.10;74.10;;;;;;5052006;28;20053;-47
2021/07/15 06:42:45;;;;;;;5.47;4.18;;;23.10;74.10;;;;;;5052798;28;20044;-49
2021/07/15 06:45:16;;;;;;;6.20;4.57;;;23.10;74.10;;;;;;5052301;28;20075;-53
2021/07/15 06:47:42;;;;;;;5.60;4.50;;;23.10;74.10;;;;;;5053501;28;20110;-50
2021/07/15 06:50:11;;;;;;;5.13;4.50;;;23.10;74.10;;;;;;5052575;28;20064;-47
2021/07/15 06:52:37;;;;;;;5.63;4.40;;;23.10;74.10;;;;;;5052336;28;20406;-48
2021/07/15 06:55:04;;;;;;;5.28;3.75;;;23.10;74.00;;;;;;5052673;28;20037;-57
2021/07/15 06:57:33;;;;;;;5.18;4.28;;;23.10;74.10;;;;;;5052525;28;20057;-41
2021/07/15 06:59:59;;;;;;;5.22;4.00;;;23.10;74.10;;;;;;5050605;28;20136;-51
2021/07/15 07:02:25;;;;;;;5.38;4.57;;;23.10;74.10;;;;;;5051986;28;20541;-48
2021/07/15 07:04:51;;;;;;;5.03;4.18;;;23.10;74.10;;;;;;5051617;28;20049;-49
2021/07/15 07:07:17;;;;;;;5.18;4.50;;;23.10;74.10;;;;;;5051181;28;20052;-49
2021/07/15 07:09:43;;;;;;;5.50;4.53;;;23.10;74.10;;;;;;5051905;28;20458;-46
2021/07/15 07:12:08;;;;;;;5.18;4.35;;;23.10;74.10;;;;;;5051868;28;20044;-51
2021/07/15 07:14:34;;;;;;;4.93;4.35;;;23.10;74.10;;;;;;5051337;28;20128;-47
2021/07/15 07:17:00;;;;;;;4.60;4.10;;;23.10;74.10;;;;;;5050819;28;20535;-46
2021/07/15 07:19:25;;;;;;;4.90;4.05;;;23.10;74.10;;;;;;5052983;28;20127;-49
2021/07/15 07:21:51;;;;;;;5.32;4.15;;;23.10;74.70;;;;;;5051582;28;20513;-47
2021/07/15 07:24:17;;;;;;;5.03;4.43;;;23.10;74.10;;;;;;5051365;28;20672;-50
2021/07/15 07:26:42;;;;;;;5.78;4.22;;;23.10;74.10;;;;;;5050773;28;20545;-50
2021/07/15 07:29:08;;;;;;;6.85;4.40;;;23.10;74.10;;;;;;5051733;28;20049;-51
2021/07/15 07:31:34;;;;;;;4.53;3.83;;;23.10;74.10;;;;;;5050704;28;20517;-52
2021/07/15 07:33:59;;;;;;;6.75;4.70;;;23.10;74.10;;;;;;5051698;28;20049;-50
2021/07/15 07:36:26;;;;;;;5.47;4.15;;;23.10;74.10;;;;;;5051133;28;20155;-51
2021/07/15 07:38:52;;;;;;;4.13;3.72;;;23.10;74.10;;;;;;5051853;28;20048;-56
2021/07/15 07:41:17;;;;;;;4.38;3.97;;;23.10;74.10;;;;;;5051999;28;20755;-47
2021/07/15 07:43:43;;;;;;;5.45;4.20;;;23.10;74.10;;;;;;5051390;28;20456;-50
2021/07/15 07:46:09;;;;;;;5.28;4.07;;;23.10;74.10;;;;;;5051830;28;20447;-47
2021/07/15 07:48:34;;;;;;;5.32;4.07;;;23.10;74.00;;;;;;5051570;28;20045;-49
2021/07/15 07:51:00;;;;;;;4.30;3.90;;;23.10;74.00;;;;;;5051519;28;20190;-53
2021/07/15 07:53:28;;;;;;;5.40;4.30;;;23.10;74.00;;;;;;5050455;28;20073;-48
2021/07/15 07:55:54;;;;;;;4.95;3.95;;;23.10;74.10;;;;;;5051409;28;20053;-50
2021/07/15 07:58:21;;;;;;;6.63;4.15;;;23.10;74.00;;;;;;5049465;28;20037;-54
2021/07/15 08:00:47;;;;;;;5.10;3.75;;;23.10;74.10;;;;;;5051250;28;20057;-52
2021/07/15 08:03:13;;;;;;;5.63;4.45;;;23.10;74.10;;;;;;5051981;28;20069;-50
2021/07/15 08:05:42;;;;;;;4.88;4.30;;;23.10;74.00;;;;;;5051231;28;20087;-50
2021/07/15 08:08:09;;;;;;;5.20;3.97;;;23.10;74.00;;;;;;5051752;28;20053;-43
2021/07/15 08:10:34;;;;;;;5.25;4.13;;;23.10;74.00;;;;;;5051732;28;20132;-47
2021/07/15 08:13:00;;;;;;;5.20;4.68;;;23.10;74.00;;;;;;5051024;28;20133;-48
2021/07/15 08:15:26;;;;;;;4.88;4.20;;;23.10;74.00;;;;;;5051708;28;20099;-47
2021/07/15 08:17:52;;;;;;;6.13;4.38;;;23.10;74.10;;;;;;5050784;28;20086;-51
2021/07/15 08:20:17;;;;;;;4.68;4.18;;;23.10;74.00;;;;;;5051646;28;20052;-48
2021/07/15 08:22:43;;;;;;;5.22;3.92;;;23.10;74.00;;;;;;5051557;28;20041;-53
2021/07/15 08:25:10;;;;;;;5.63;3.90;;;23.10;74.00;;;;;;5050872;28;20493;-45
2021/07/15 08:27:36;;;;;;;4.40;3.80;;;23.10;74.00;;;;;;5050699;28;20481;-48
2021/07/15 08:30:04;;;;;;;6.40;4.10;;;23.10;74.10;;;;;;5050127;28;20049;-53
2021/07/15 08:32:30;;;;;;;6.10;4.15;;;23.10;74.00;;;;;;5050099;28;20041;-51
2021/07/15 08:34:56;;;;;;;4.93;4.22;;;23.10;74.00;;;;;;5049890;28;20045;-52
2021/07/15 08:37:21;;;;;;;3.95;3.58;;;23.10;74.00;;;;;;5050344;28;20065;-53
2021/07/15 08:39:47;;;;;;;5.72;4.32;;;23.10;74.00;;;;;;5037362;28;20080;-49
2021/07/15 08:42:14;;;;;;;4.60;3.85;;;23.10;74.00;;;;;;5031162;28;20133;-48
2021/07/15 08:44:39;;;;;;;4.88;3.70;;;23.10;74.00;;;;;;5051688;28;20182;-53
2021/07/15 08:47:07;;;;;;;5.85;4.50;;;23.10;74.00;;;;;;5054671;28;20057;-55
2021/07/15 08:49:35;;;;;;;4.20;3.78;;;23.10;74.00;;;;;;5054746;28;20049;-48
2021/07/15 08:52:02;;;;;;;4.53;3.50;;;23.10;74.00;;;;;;5055337;28;20045;-46
2021/07/15 08:55:05;;;;;;;4.18;3.70;;;23.10;74.00;;;;;;5054957;28;20537;-51
2021/07/15 08:57:19;;;;;;;4.10;3.70;;;23.10;74.00;;;;;;5034479;28;20049;-52
2021/07/15 08:59:46;;;;;;;4.88;4.25;;;23.10;74.00;;;;;;5042673;28;20052;-47
2021/07/15 09:02:15;;;;;;;5.28;3.50;;;23.10;74.00;;;;;;5055218;28;20050;-49
2021/07/15 09:04:41;;;;;;;5.18;3.90;;;23.10;74.00;;;;;;5056743;28;20547;-46
2021/07/15 09:07:07;;;;;;;4.50;3.85;;;23.10;74.00;;;;;;5054940;28;20052;-53
2021/07/15 09:09:33;;;;;;;5.43;4.05;;;23.10;74.00;;;;;;5054317;28;20044;-55
2021/07/15 09:11:58;;;;;;;6.32;3.92;;;23.10;74.00;;;;;;5054160;28;20131;-50
2021/07/15 09:14:24;;;;;;;5.05;3.58;;;23.10;74.00;;;;;;5054611;28;20087;-54
2021/07/15 09:16:57;;;;;;;4.57;3.92;;;23.10;74.00;;;;;;5054859;28;20474;-50
2021/07/15 09:19:25;;;;;;;4.65;4.10;;;23.10;74.00;;;;;;5054228;28;20049;-52
2021/07/15 09:21:51;;;;;;;5.82;3.92;;;23.10;74.00;;;;;;5053872;28;20102;-53
2021/07/15 09:24:31;;;;;;;4.22;3.83;;;23.10;74.00;;;;;;5055184;28;20053;-51
2021/07/15 09:26:59;;;;;;;7.03;3.72;;;23.10;74.00;;;;;;5053970;28;20053;-47
2021/07/15 09:29:25;;;;;;;4.97;3.88;;;23.10;74.00;;;;;;5054324;28;20045;-49
2021/07/15 09:31:55;;;;;;;4.38;3.67;;;23.10;74.00;;;;;;5054613;28;20049;-56
2021/07/15 09:34:22;;;;;;;4.55;3.65;;;23.00;74.00;;;;;;5054130;28;20071;-52
2021/07/15 09:36:49;;;;;;;4.90;3.97;;;23.10;74.00;;;;;;5054146;28;20124;-48
2021/07/15 09:39:26;;;;;;;4.25;3.55;;;23.10;74.00;;;;;;5054557;28;20095;-44
2021/07/15 09:42:14;;;;;;;3.92;3.53;;;23.10;74.00;;;;;;5052277;28;20049;-51
2021/07/15 09:44:43;;;;;;;4.28;3.88;;;23.10;74.00;;;;;;5054001;28;20060;-57
2021/07/15 09:47:34;;;;;;;4.13;3.42;;;23.10;74.00;;;;;;5053545;28;20064;-53
2021/07/15 09:50:03;;;;;;;4.15;3.50;;;23.10;74.00;;;;;;5047752;28;20152;-48
2021/07/15 09:52:28;;;;;;;4.00;3.25;;;23.10;74.00;;;;;;5054775;28;20075;-51
2021/07/15 09:55:20;;;;;;;5.10;4.30;;;23.10;74.00;;;;;;5055599;28;20540;-52
2021/07/15 09:57:59;;;;;;;5.72;3.47;;;23.10;74.00;;;;;;5055982;28;20053;-56
2021/07/15 10:00:36;;;;;;;4.30;3.42;;;23.10;74.00;;;;;;5054341;28;20068;-50
2021/07/15 10:03:03;;;;;;;4.35;3.53;;;23.10;74.00;;;;;;5053070;28;20052;-53
2021/07/15 10:05:30;;;;;;;5.32;3.67;;;23.10;74.00;;;;;;5053673;28;20049;-50
2021/07/15 10:08:10;;;;;;;3.95;3.50;;;23.10;74.00;;;;;;5052632;28;20044;-48
2021/07/15 10:10:38;;;;;;;4.75;3.75;;;23.10;74.00;;;;;;5051265;28;20112;-51
2021/07/15 10:13:17;;;;;;;4.53;3.67;;;23.00;74.00;;;;;;5053109;28;20049;-45
2021/07/15 10:15:44;;;;;;;4.63;3.58;;;23.00;74.00;;;;;;5051660;28;20045;-53
2021/07/15 10:18:11;;;;;;;4.28;3.38;;;23.00;74.00;;;;;;5049698;28;20412;-48
2021/07/15 10:20:37;;;;;;;4.53;3.50;;;23.10;74.00;;;;;;5043190;28;20053;-51
2021/07/15 10:23:03;;;;;;;5.10;3.60;;;23.10;74.00;;;;;;5045312;28;20052;-54
2021/07/15 10:25:29;;;;;;;3.90;3.50;;;23.00;74.00;;;;;;5047642;28;20045;-53
2021/07/15 10:27:56;;;;;;;5.47;3.70;;;23.00;74.00;;;;;;5050779;28;20055;-46
2021/07/15 10:30:22;;;;;;;3.83;3.33;;;23.00;74.00;;;;;;5050573;28;20123;-53
2021/07/15 10:32:48;;;;;;;4.80;3.72;;;23.10;74.00;;;;;;5052266;28;20044;-44
2021/07/15 10:35:16;;;;;;;4.53;3.72;;;23.10;74.00;;;;;;5053329;28;20064;-51
2021/07/15 10:37:45;;;;;;;4.55;3.40;;;23.00;74.00;;;;;;5053015;28;20072;-52
2021/07/15 10:40:14;;;;;;;3.60;3.30;;;23.00;74.00;;;;;;5051593;28;20049;-50
2021/07/15 10:42:40;;;;;;;4.40;3.60;;;23.00;74.00;;;;;;5049530;28;20056;-50
2021/07/15 10:45:08;;;;;;;4.32;3.67;;;23.00;74.00;;;;;;5048813;28;20049;-48
2021/07/15 10:47:35;;;;;;;4.32;3.65;;;23.00;74.00;;;;;;5049572;28;20087;-53
2021/07/15 10:50:01;;;;;;;3.80;3.38;;;23.00;74.00;;;;;;5051744;28;20051;-51
2021/07/15 10:52:27;;;;;;;4.00;3.38;;;23.10;74.00;;;;;;5049974;28;20049;-52
2021/07/15 10:54:54;;;;;;;4.18;3.60;;;23.00;74.60;;;;;;5051004;28;20045;-51
2021/07/15 10:57:22;;;;;;;4.22;3.50;;;23.00;73.90;;;;;;5051464;28;20076;-50
2021/07/15 10:59:47;;;;;;;4.43;3.58;;;23.00;74.00;;;;;;5049580;28;20457;-55
2021/07/15 11:02:22;;;;;;;3.85;3.17;;;23.00;74.00;;;;;;5051584;28;20048;-50
2021/07/15 11:04:48;;;;;;;3.70;3.40;;;23.00;74.00;;;;;;5050770;28;20049;-52
2021/07/15 11:07:27;;;;;;;4.43;3.75;;;23.00;73.90;;;;;;5050045;28;20049;-46
2021/07/15 11:10:12;;;;;;;4.25;3.70;;;23.00;74.00;;;;;;5050569;28;20049;-49
2021/07/15 11:12:38;;;;;;;5.13;3.88;;;23.00;74.00;;;;;;5052172;28;20098;-53
2021/07/15 11:15:08;;;;;;;3.30;2.97;;;23.00;74.00;;;;;;5051117;28;20049;-52
2021/07/15 11:17:48;;;;;;;4.13;3.58;;;23.00;74.00;;;;;;5052401;28;20048;-49
2021/07/15 11:20:40;;;;;;;5.68;3.40;;;23.00;74.00;;;;;;5051626;28;20045;-55
2021/07/15 11:23:19;;;;;;;4.35;3.53;;;23.00;74.00;;;;;;5049484;28;20053;-50
2021/07/15 11:25:44;;;;;;;4.07;3.50;;;23.00;73.90;;;;;;5051958;28;20033;-53
2021/07/15 11:28:10;;;;;;;4.53;3.83;;;23.00;74.00;;;;;;5051719;28;20076;-57
2021/07/15 11:30:36;;;;;;;3.50;3.20;;;23.00;74.00;;;;;;5052107;28;20045;-49
2021/07/15 11:33:21;;;;;;;4.28;3.88;;;23.00;74.00;;;;;;5051805;28;20123;-53
2021/07/15 11:36:07;;;;;;;3.83;3.42;;;23.00;74.00;;;;;;5051191;28;20088;-49
2021/07/15 11:38:54;;;;;;;4.20;3.50;;;23.00;73.90;;;;;;5051363;28;20452;-44
2021/07/15 11:41:20;;;;;;;;;;;23.00;74.00;;;;;;5052373;28;20106;-45
2021/07/15 11:43:50;;;;;;;4.82;3.88;;;23.00;73.90;;;;;;5049032;28;19921;-47
2021/07/15 11:46:22;;;;;;;4.38;3.38;;;23.00;74.00;;;;;;5052122;28;20080;-49
2021/07/15 11:48:57;;;;;;;4.97;3.70;;;23.00;74.00;;;;;;5050423;28;20069;-52
2021/07/15 11:51:26;;;;;;;3.72;3.20;;;23.00;74.00;;;;;;5050707;28;20053;-50
2021/07/15 11:54:15;;;;;;;4.15;3.67;;;23.00;74.00;;;;;;5051405;28;20045;-48
2021/07/15 11:56:46;;;;;;;5.22;3.78;;;23.00;73.90;;;;;;5052113;28;20473;-47
2021/07/15 11:59:33;;;;;;;3.97;3.50;;;23.00;74.00;;;;;;5050115;28;20103;-54
2021/07/15 12:02:10;;;;;;;4.60;3.60;;;23.00;74.00;;;;;;5051755;28;20374;-48
2021/07/15 12:05:11;;;;;;;6.13;4.10;;;23.00;74.00;;;;;;5051508;28;20052;-49
2021/07/15 12:07:58;;;;;;;4.55;3.47;;;23.00;74.00;;;;;;5051083;28;20087;-48
2021/07/15 12:10:27;;;;;;;4.53;3.22;;;23.00;74.70;;;;;;5040328;28;20459;-46
2021/07/15 12:13:03;;;;;;;4.38;3.78;;;23.00;74.00;;;;;;5050982;28;20106;-47
2021/07/15 12:15:29;;;;;;;4.35;3.45;;;23.00;74.00;;;;;;5051879;28;20045;-49
2021/07/15 12:18:01;;;;;;;4.78;3.25;;;23.00;74.00;;;;;;5051565;28;20077;-51
2021/07/15 12:20:49;;;;;;;3.78;3.40;;;23.00;74.00;;;;;;5053593;28;20076;-46
2021/07/15 12:23:38;;;;;;;3.38;3.00;;;23.00;74.00;;;;;;5049106;28;20053;-52
2021/07/15 12:26:06;;;;;;;3.55;3.25;;;23.00;74.00;;;;;;5035562;28;20099;-46
2021/07/15 12:28:32;;;;;;;4.90;3.03;;;23.00;74.00;;;;;;5046353;28;20048;-50
2021/07/15 12:31:02;;;;;;;3.85;3.30;;;23.00;74.00;;;;;;5054650;28;20091;-53
2021/07/15 12:33:46;;;;;;;4.38;3.63;;;23.00;74.00;;;;;;5055136;28;20069;-54
2021/07/15 12:36:25;;;;;;;3.58;3.28;;;23.00;74.00;;;;;;5050978;28;20045;-45
2021/07/15 12:39:00;;;;;;;4.03;3.30;;;23.00;74.00;;;;;;5054277;28;20060;-49
2021/07/15 12:41:27;;;;;;;;;;;23.00;74.60;;;;;;5055057;28;20055;-57
2021/07/15 12:43:57;;;;;;;3.80;3.38;;;23.00;73.90;;;;;;5053874;28;19921;-46
2021/07/15 12:46:30;;;;;;;3.83;3.33;;;23.00;74.00;;;;;;5050992;28;20045;-52
2021/07/15 12:49:22;;;;;;;4.45;3.55;;;23.00;74.00;;;;;;5054480;28;20064;-50
2021/07/15 12:51:57;;;;;;;4.95;3.50;;;23.00;74.00;;;;;;5042382;28;20493;-52
2021/07/15 12:54:47;;;;;;;4.15;3.28;;;23.00;74.00;;;;;;5054870;28;20107;-49
2021/07/15 12:57:13;;;;;;;3.50;3.17;;;23.00;74.00;;;;;;5053923;28;20041;-51
2021/07/15 12:59:41;;;;;;;5.13;3.50;;;23.00;74.00;;;;;;5053969;28;20044;-47